EDFH/HHN METAR and TAF weather

Enter ICAO airport designator
Station Type Date Time Source
EDFH METAR 2020/12/06 00:50 UTC NOAA

EDFH 060050Z 13006KT 0400 R21/0700U FG VV/// 00/00 Q0998


Station Type Date Time Source
EDFH Decoded METAR 2020/12/06 00:50 UTC NOAA

Hahn, Germany (EDFH) 49-57N 007-16E 498M
Dec 05, 2020 - 07:50 PM EST / 2020.12.06 0050 UTC
Wind: from the SE (130 degrees) at 7 MPH (6 KT):0
Visibility: less than 1 mile:0
Sky conditions: obscured
Weather: fog
Temperature: 32 F (0 C)
Windchill: 24 F (-4 C):1
Dew Point: 32 F (0 C)
Relative Humidity: 100%
Pressure (altimeter): 29.47 in. Hg (0998 hPa)
ob: EDFH 060050Z 13006KT 0400 R21/0700U FG VV/// 00/00 Q0998
cycle: 1

Station Type Date Time Source
EDFH TAF 2020/12/05 19:17 UTC NOAA

TAF
AMD EDFH 051907Z 0519/0618 15010KT 9999 FEW005 SCT020
BECMG 0519/0522 2500 BR BKN005 BKN010
TEMPO 0522/0610 0200 FZFG BKN001
BECMG 0600/0603 13004KT
BECMG 0608/0611 33005KT
TEMPO 0610/0618 1200 BR BKN002

Example: see airport list